Aviation Digital Data Service (ADDS)

Output produced by TAFs form (0233 UTC 01 July 2016)
found at http://aviationweather.gov/adds/tafs/
 
KVEL 010204Z 0102/0124 VRB04KT P6SM SCT100 BKN200 
     FM010400 30004KT P6SM BKN100 BKN200 
     FM010600 30004KT P6SM VCSH SCT060 BKN100 
     FM011800 23008G18KT P6SM VCTS BKN100CB